sensor_id;sensor_type;location;lat;lon;timestamp;pressure;altitude;pressure_sealevel;temperature;humidity
78590;BME280;67888;50.228;7.828;2023-11-19T00:02:19;98879.63;;;9.33;100.00
78590;BME280;67888;50.228;7.828;2023-11-19T00:07:20;98860.72;;;9.31;100.00
78590;BME280;67888;50.228;7.828;2023-11-19T00:12:20;98876.97;;;9.48;100.00
78590;BME280;67888;50.228;7.828;2023-11-19T00:17:21;98871.97;;;9.47;100.00
78590;BME280;67888;50.228;7.828;2023-11-19T00:22:21;98857.00;;;9.47;100.00
78590;BME280;67888;50.228;7.828;2023-11-19T00:27:22;98847.50;;;9.51;100.00
78590;BME280;67888;50.228;7.828;2023-11-19T00:32:23;98843.84;;;9.57;100.00
78590;BME280;67888;50.228;7.828;2023-11-19T00:37:24;98830.16;;;9.60;100.00
78590;BME280;67888;50.228;7.828;2023-11-19T00:42:24;98823.88;;;9.61;100.00
78590;BME280;67888;50.228;7.828;2023-11-19T00:47:25;98815.41;;;9.69;100.00
78590;BME280;67888;50.228;7.828;2023-11-19T00:52:25;98793.06;;;9.72;100.00
78590;BME280;67888;50.228;7.828;2023-11-19T00:57:26;98804.38;;;9.73;100.00
78590;BME280;67888;50.228;7.828;2023-11-19T01:02:27;98819.56;;;9.81;100.00
78590;BME280;67888;50.228;7.828;2023-11-19T01:07:27;98783.28;;;9.88;100.00
78590;BME280;67888;50.228;7.828;2023-11-19T01:12:27;98769.75;;;10.04;100.00
78590;BME280;67888;50.228;7.828;2023-11-19T01:17:28;98796.16;;;10.28;100.00
78590;BME280;67888;50.228;7.828;2023-11-19T01:22:28;98797.44;;;10.70;100.00
78590;BME280;67888;50.228;7.828;2023-11-19T01:27:29;98805.50;;;10.78;100.00
78590;BME280;67888;50.228;7.828;2023-11-19T01:32:29;98791.81;;;10.76;100.00
78590;BME280;67888;50.228;7.828;2023-11-19T01:37:30;98787.97;;;10.69;100.00
78590;BME280;67888;50.228;7.828;2023-11-19T01:42:38;98773.38;;;10.82;100.00
78590;BME280;67888;50.228;7.828;2023-11-19T01:47:39;98767.56;;;10.85;100.00
78590;BME280;67888;50.228;7.828;2023-11-19T01:52:41;98762.28;;;10.85;100.00
78590;BME280;67888;50.228;7.828;2023-11-19T01:57:41;98749.72;;;10.76;100.00
78590;BME280;67888;50.228;7.828;2023-11-19T02:02:43;98756.38;;;10.69;100.00
78590;BME280;67888;50.228;7.828;2023-11-19T02:07:44;98734.16;;;10.80;100.00
78590;BME280;67888;50.228;7.828;2023-11-19T02:12:46;98746.91;;;10.68;100.00
78590;BME280;67888;50.228;7.828;2023-11-19T02:17:47;98741.84;;;10.76;100.00
78590;BME280;67888;50.228;7.828;2023-11-19T02:22:47;98747.44;;;10.70;100.00
78590;BME280;67888;50.228;7.828;2023-11-19T02:27:54;98747.31;;;10.51;100.00
78590;BME280;67888;50.228;7.828;2023-11-19T02:32:56;98735.81;;;10.47;100.00
78590;BME280;67888;50.228;7.828;2023-11-19T02:38:02;98724.69;;;10.55;100.00
78590;BME280;67888;50.228;7.828;2023-11-19T02:43:07;98749.66;;;10.58;100.00
78590;BME280;67888;50.228;7.828;2023-11-19T02:48:08;98730.69;;;10.61;100.00
78590;BME280;67888;50.228;7.828;2023-11-19T02:53:10;98741.66;;;10.68;100.00
78590;BME280;67888;50.228;7.828;2023-11-19T02:58:10;98746.69;;;10.64;100.00
78590;BME280;67888;50.228;7.828;2023-11-19T03:03:20;98749.69;;;10.53;100.00
78590;BME280;67888;50.228;7.828;2023-11-19T03:08:22;98738.84;;;10.59;100.00
78590;BME280;67888;50.228;7.828;2023-11-19T03:13:23;98728.66;;;10.53;100.00
78590;BME280;67888;50.228;7.828;2023-11-19T03:18:24;98725.53;;;10.51;100.00
78590;BME280;67888;50.228;7.828;2023-11-19T03:23:25;98730.22;;;10.54;100.00
78590;BME280;67888;50.228;7.828;2023-11-19T03:28:28;98726.59;;;10.50;100.00
78590;BME280;67888;50.228;7.828;2023-11-19T03:33:28;98716.06;;;10.50;100.00
78590;BME280;67888;50.228;7.828;2023-11-19T03:38:29;98711.09;;;10.48;100.00
78590;BME280;67888;50.228;7.828;2023-11-19T03:43:31;98710.28;;;10.48;100.00
78590;BME280;67888;50.228;7.828;2023-11-19T03:48:31;98714.44;;;10.54;100.00
78590;BME280;67888;50.228;7.828;2023-11-19T03:53:32;98703.69;;;10.50;100.00
78590;BME280;67888;50.228;7.828;2023-11-19T03:58:32;98707.31;;;10.54;100.00
78590;BME280;67888;50.228;7.828;2023-11-19T04:03:33;98702.69;;;10.70;100.00
78590;BME280;67888;50.228;7.828;2023-11-19T04:08:33;98701.53;;;10.81;100.00
78590;BME280;67888;50.228;7.828;2023-11-19T04:13:36;98696.94;;;10.92;100.00
78590;BME280;67888;50.228;7.828;2023-11-19T04:18:36;98691.78;;;10.82;100.00
78590;BME280;67888;50.228;7.828;2023-11-19T04:23:37;98693.72;;;10.76;100.00
78590;BME280;67888;50.228;7.828;2023-11-19T04:28:37;98696.22;;;10.86;100.00
78590;BME280;67888;50.228;7.828;2023-11-19T04:33:38;98708.09;;;10.84;100.00
78590;BME280;67888;50.228;7.828;2023-11-19T04:38:38;98704.63;;;10.88;100.00
78590;BME280;67888;50.228;7.828;2023-11-19T04:43:39;98698.34;;;10.84;100.00
78590;BME280;67888;50.228;7.828;2023-11-19T04:48:39;98708.03;;;10.89;100.00
78590;BME280;67888;50.228;7.828;2023-11-19T04:53:39;98706.47;;;10.88;100.00
78590;BME280;67888;50.228;7.828;2023-11-19T04:58:40;98715.94;;;10.89;100.00
78590;BME280;67888;50.228;7.828;2023-11-19T05:03:40;98723.44;;;11.00;100.00
78590;BME280;67888;50.228;7.828;2023-11-19T05:08:41;98718.63;;;11.07;100.00
78590;BME280;67888;50.228;7.828;2023-11-19T05:13:42;98719.75;;;11.01;100.00
78590;BME280;67888;50.228;7.828;2023-11-19T05:18:43;98710.28;;;11.00;100.00
78590;BME280;67888;50.228;7.828;2023-11-19T05:23:44;98681.88;;;10.97;100.00
78590;BME280;67888;50.228;7.828;2023-11-19T05:28:45;98696.22;;;10.86;100.00
78590;BME280;67888;50.228;7.828;2023-11-19T05:33:46;98706.25;;;10.84;100.00
78590;BME280;67888;50.228;7.828;2023-11-19T05:38:46;98697.44;;;10.70;100.00
78590;BME280;67888;50.228;7.828;2023-11-19T05:43:46;98706.16;;;10.89;100.00
78590;BME280;67888;50.228;7.828;2023-11-19T05:48:47;98700.06;;;10.94;100.00
78590;BME280;67888;50.228;7.828;2023-11-19T05:53:48;98713.41;;;10.78;100.00
78590;BME280;67888;50.228;7.828;2023-11-19T05:58:50;98725.44;;;10.61;100.00
78590;BME280;67888;50.228;7.828;2023-11-19T06:03:51;98726.06;;;10.48;100.00
78590;BME280;67888;50.228;7.828;2023-11-19T06:08:51;98733.16;;;10.18;100.00
78590;BME280;67888;50.228;7.828;2023-11-19T06:13:52;98735.97;;;9.88;100.00
78590;BME280;67888;50.228;7.828;2023-11-19T06:18:52;98733.78;;;9.61;100.00
78590;BME280;67888;50.228;7.828;2023-11-19T06:23:53;98743.88;;;9.88;100.00
78590;BME280;67888;50.228;7.828;2023-11-19T06:28:54;98751.69;;;9.93;100.00
78590;BME280;67888;50.228;7.828;2023-11-19T06:33:55;98745.19;;;9.80;100.00
78590;BME280;67888;50.228;7.828;2023-11-19T06:38:55;98737.06;;;9.27;100.00
78590;BME280;67888;50.228;7.828;2023-11-19T06:43:56;98747.59;;;9.77;100.00
78590;BME280;67888;50.228;7.828;2023-11-19T06:48:57;98749.41;;;9.81;100.00
78590;BME280;67888;50.228;7.828;2023-11-19T06:53:57;98750.44;;;9.85;100.00
78590;BME280;67888;50.228;7.828;2023-11-19T06:58:58;98760.19;;;9.20;100.00
78590;BME280;67888;50.228;7.828;2023-11-19T07:03:58;98771.41;;;9.41;100.00
78590;BME280;67888;50.228;7.828;2023-11-19T07:09:02;98775.53;;;9.62;100.00
78590;BME280;67888;50.228;7.828;2023-11-19T07:14:14;98760.22;;;9.75;100.00
78590;BME280;67888;50.228;7.828;2023-11-19T07:19:14;98758.59;;;9.84;100.00
78590;BME280;67888;50.228;7.828;2023-11-19T07:24:15;98756.47;;;9.86;100.00
78590;BME280;67888;50.228;7.828;2023-11-19T07:29:16;98771.28;;;9.72;100.00
78590;BME280;67888;50.228;7.828;2023-11-19T07:34:17;98768.53;;;9.38;100.00
78590;BME280;67888;50.228;7.828;2023-11-19T07:39:17;98771.81;;;9.68;100.00
78590;BME280;67888;50.228;7.828;2023-11-19T07:44:18;98776.25;;;10.22;100.00
78590;BME280;67888;50.228;7.828;2023-11-19T07:49:18;98777.47;;;10.64;100.00
78590;BME280;67888;50.228;7.828;2023-11-19T07:54:19;98781.81;;;11.07;100.00
78590;BME280;67888;50.228;7.828;2023-11-19T07:59:21;98787.16;;;11.26;100.00
78590;BME280;67888;50.228;7.828;2023-11-19T08:04:22;98799.84;;;11.43;100.00
78590;BME280;67888;50.228;7.828;2023-11-19T08:09:22;98795.72;;;11.37;100.00
78590;BME280;67888;50.228;7.828;2023-11-19T08:14:23;98805.06;;;11.48;100.00
78590;BME280;67888;50.228;7.828;2023-11-19T08:19:24;98815.56;;;11.72;100.00
78590;BME280;67888;50.228;7.828;2023-11-19T08:24:25;98817.00;;;11.64;100.00
78590;BME280;67888;50.228;7.828;2023-11-19T08:29:25;98817.78;;;11.41;100.00
78590;BME280;67888;50.228;7.828;2023-11-19T08:34:25;98824.72;;;11.32;100.00
78590;BME280;67888;50.228;7.828;2023-11-19T08:39:26;98817.72;;;11.46;100.00
78590;BME280;67888;50.228;7.828;2023-11-19T08:44:26;98817.94;;;11.73;100.00
78590;BME280;67888;50.228;7.828;2023-11-19T08:49:27;98821.47;;;11.88;100.00
78590;BME280;67888;50.228;7.828;2023-11-19T08:54:27;98824.88;;;12.07;100.00
78590;BME280;67888;50.228;7.828;2023-11-19T08:59:29;98821.91;;;11.95;100.00
78590;BME280;67888;50.228;7.828;2023-11-19T09:04:29;98834.81;;;12.15;100.00
78590;BME280;67888;50.228;7.828;2023-11-19T09:09:29;98828.81;;;12.28;100.00
78590;BME280;67888;50.228;7.828;2023-11-19T09:14:31;98845.28;;;12.20;100.00
78590;BME280;67888;50.228;7.828;2023-11-19T09:19:32;98851.78;;;12.28;100.00
78590;BME280;67888;50.228;7.828;2023-11-19T09:24:33;98845.78;;;12.41;100.00
78590;BME280;67888;50.228;7.828;2023-11-19T09:29:33;98842.38;;;12.40;100.00
78590;BME280;67888;50.228;7.828;2023-11-19T09:34:34;98835.88;;;12.51;100.00
78590;BME280;67888;50.228;7.828;2023-11-19T09:39:34;98842.13;;;12.55;100.00
78590;BME280;67888;50.228;7.828;2023-11-19T09:44:37;98855.66;;;12.68;100.00
78590;BME280;67888;50.228;7.828;2023-11-19T09:49:39;98842.78;;;12.80;100.00
78590;BME280;67888;50.228;7.828;2023-11-19T09:54:40;98848.22;;;12.70;100.00
78590;BME280;67888;50.228;7.828;2023-11-19T09:59:41;98843.00;;;12.83;100.00
78590;BME280;67888;50.228;7.828;2023-11-19T10:04:43;98841.72;;;12.81;100.00
78590;BME280;67888;50.228;7.828;2023-11-19T10:09:46;98841.06;;;12.89;100.00
78590;BME280;67888;50.228;7.828;2023-11-19T10:14:47;98854.66;;;12.96;100.00
78590;BME280;67888;50.228;7.828;2023-11-19T10:19:49;98854.25;;;12.89;100.00
78590;BME280;67888;50.228;7.828;2023-11-19T10:24:49;98884.97;;;12.85;100.00
78590;BME280;67888;50.228;7.828;2023-11-19T10:29:50;98851.13;;;12.87;100.00
78590;BME280;67888;50.228;7.828;2023-11-19T10:34:50;98837.16;;;13.00;100.00
78590;BME280;67888;50.228;7.828;2023-11-19T10:39:52;98835.84;;;12.84;100.00
78590;BME280;67888;50.228;7.828;2023-11-19T10:44:55;98848.78;;;12.53;100.00
78590;BME280;67888;50.228;7.828;2023-11-19T10:49:56;98849.69;;;12.43;100.00
78590;BME280;67888;50.228;7.828;2023-11-19T10:55:00;98839.34;;;12.66;100.00
78590;BME280;67888;50.228;7.828;2023-11-19T11:00:02;98841.47;;;12.96;100.00
78590;BME280;67888;50.228;7.828;2023-11-19T11:05:12;98822.31;;;13.04;100.00
78590;BME280;67888;50.228;7.828;2023-11-19T11:10:13;98819.13;;;13.21;100.00
78590;BME280;67888;50.228;7.828;2023-11-19T11:15:17;98808.25;;;13.22;100.00
78590;BME280;67888;50.228;7.828;2023-11-19T11:20:18;98804.94;;;13.17;100.00
78590;BME280;67888;50.228;7.828;2023-11-19T11:25:55;98804.25;;;13.39;100.00
78590;BME280;67888;50.228;7.828;2023-11-19T11:36:23;98797.13;;;13.53;100.00
78590;BME280;67888;50.228;7.828;2023-11-19T11:41:25;98808.47;;;13.53;100.00
78590;BME280;67888;50.228;7.828;2023-11-19T11:57:08;98788.03;;;13.81;100.00
78590;BME280;67888;50.228;7.828;2023-11-19T12:02:11;98804.13;;;13.71;100.00
78590;BME280;67888;50.228;7.828;2023-11-19T12:07:17;98800.34;;;13.99;100.00
78590;BME280;67888;50.228;7.828;2023-11-19T12:22:44;98762.69;;;13.17;100.00
78590;BME280;67888;50.228;7.828;2023-11-19T12:27:47;98751.50;;;13.34;100.00
78590;BME280;67888;50.228;7.828;2023-11-19T12:32:48;98761.91;;;13.16;100.00
78590;BME280;67888;50.228;7.828;2023-11-19T12:37:50;98742.63;;;13.16;100.00
78590;BME280;67888;50.228;7.828;2023-11-19T12:42:53;98737.63;;;13.14;100.00
78590;BME280;67888;50.228;7.828;2023-11-19T12:48:09;98747.56;;;13.45;100.00
78590;BME280;67888;50.228;7.828;2023-11-19T12:53:11;98741.34;;;13.27;100.00
78590;BME280;67888;50.228;7.828;2023-11-19T12:58:32;98731.22;;;13.92;100.00
78590;BME280;67888;50.228;7.828;2023-11-19T13:03:34;98725.53;;;14.75;100.00
78590;BME280;67888;50.228;7.828;2023-11-19T13:21:07;98736.41;;;14.42;100.00
78590;BME280;67888;50.228;7.828;2023-11-19T13:26:08;98740.66;;;14.07;100.00
78590;BME280;67888;50.228;7.828;2023-11-19T13:31:08;98727.38;;;16.05;100.00
78590;BME280;67888;50.228;7.828;2023-11-19T13:36:10;98719.66;;;14.95;100.00
78590;BME280;67888;50.228;7.828;2023-11-19T13:41:11;98722.44;;;14.28;100.00
78590;BME280;67888;50.228;7.828;2023-11-19T13:46:12;98723.63;;;15.80;100.00
78590;BME280;67888;50.228;7.828;2023-11-19T13:51:13;98704.72;;;13.70;100.00
78590;BME280;67888;50.228;7.828;2023-11-19T13:56:13;98712.50;;;13.67;100.00
78590;BME280;67888;50.228;7.828;2023-11-19T14:01:14;98716.19;;;13.79;100.00
78590;BME280;67888;50.228;7.828;2023-11-19T14:06:14;98720.81;;;13.60;100.00
78590;BME280;67888;50.228;7.828;2023-11-19T14:11:15;98698.03;;;13.86;100.00
78590;BME280;67888;50.228;7.828;2023-11-19T14:16:16;98700.72;;;15.10;100.00
78590;BME280;67888;50.228;7.828;2023-11-19T14:21:16;98686.25;;;13.92;100.00
78590;BME280;67888;50.228;7.828;2023-11-19T14:26:17;98692.06;;;13.81;100.00
78590;BME280;67888;50.228;7.828;2023-11-19T14:31:17;98697.00;;;13.96;100.00
78590;BME280;67888;50.228;7.828;2023-11-19T14:36:18;98692.47;;;14.19;100.00
78590;BME280;67888;50.228;7.828;2023-11-19T14:41:18;98702.59;;;14.17;100.00
78590;BME280;67888;50.228;7.828;2023-11-19T14:46:19;98705.22;;;13.94;100.00
78590;BME280;67888;50.228;7.828;2023-11-19T14:51:19;98704.97;;;13.60;100.00
78590;BME280;67888;50.228;7.828;2023-11-19T14:56:20;98686.72;;;12.95;100.00
78590;BME280;67888;50.228;7.828;2023-11-19T15:01:21;98698.06;;;12.82;100.00
78590;BME280;67888;50.228;7.828;2023-11-19T15:12:40;98678.47;;;12.55;100.00
78590;BME280;67888;50.228;7.828;2023-11-19T15:17:42;98701.53;;;12.36;100.00
78590;BME280;67888;50.228;7.828;2023-11-19T15:22:42;98698.63;;;12.51;100.00
78590;BME280;67888;50.228;7.828;2023-11-19T15:27:43;98710.91;;;12.42;100.00
78590;BME280;67888;50.228;7.828;2023-11-19T15:32:43;98712.81;;;12.23;100.00
78590;BME280;67888;50.228;7.828;2023-11-19T15:37:44;98721.19;;;11.93;100.00
78590;BME280;67888;50.228;7.828;2023-11-19T15:42:45;98719.78;;;11.81;100.00
78590;BME280;67888;50.228;7.828;2023-11-19T15:47:49;98727.13;;;11.84;100.00
78590;BME280;67888;50.228;7.828;2023-11-19T15:52:49;98738.59;;;11.94;100.00
78590;BME280;67888;50.228;7.828;2023-11-19T15:57:50;98714.72;;;11.85;100.00
78590;BME280;67888;50.228;7.828;2023-11-19T16:02:50;98715.50;;;11.86;100.00
78590;BME280;67888;50.228;7.828;2023-11-19T16:07:51;98721.25;;;11.69;100.00
78590;BME280;67888;50.228;7.828;2023-11-19T16:12:51;98730.84;;;11.83;100.00
78590;BME280;67888;50.228;7.828;2023-11-19T16:17:52;98736.38;;;11.82;100.00
78590;BME280;67888;50.228;7.828;2023-11-19T16:22:54;98736.66;;;11.80;100.00
78590;BME280;67888;50.228;7.828;2023-11-19T16:27:55;98749.47;;;11.68;100.00
78590;BME280;67888;50.228;7.828;2023-11-19T16:32:57;98746.53;;;11.51;100.00
78590;BME280;67888;50.228;7.828;2023-11-19T16:37:58;98743.31;;;11.54;100.00
78590;BME280;67888;50.228;7.828;2023-11-19T16:42:59;98748.97;;;11.24;100.00
78590;BME280;67888;50.228;7.828;2023-11-19T16:48:00;98750.97;;;11.32;100.00
78590;BME280;67888;50.228;7.828;2023-11-19T16:53:01;98744.25;;;11.21;100.00
78590;BME280;67888;50.228;7.828;2023-11-19T16:58:04;98749.41;;;11.31;100.00
78590;BME280;67888;50.228;7.828;2023-11-19T17:03:05;98764.38;;;11.11;100.00
78590;BME280;67888;50.228;7.828;2023-11-19T17:08:05;98772.50;;;11.15;100.00
78590;BME280;67888;50.228;7.828;2023-11-19T17:13:06;98771.81;;;11.04;100.00
78590;BME280;67888;50.228;7.828;2023-11-19T17:18:06;98772.16;;;11.22;100.00
78590;BME280;67888;50.228;7.828;2023-11-19T17:23:06;98758.09;;;11.07;100.00
78590;BME280;67888;50.228;7.828;2023-11-19T17:28:08;98774.44;;;11.04;100.00
78590;BME280;67888;50.228;7.828;2023-11-19T17:33:10;98764.53;;;10.96;100.00
78590;BME280;67888;50.228;7.828;2023-11-19T17:38:10;98758.72;;;10.99;100.00
78590;BME280;67888;50.228;7.828;2023-11-19T17:43:11;98767.56;;;11.08;100.00
78590;BME280;67888;50.228;7.828;2023-11-19T17:48:11;98758.72;;;10.99;100.00
78590;BME280;67888;50.228;7.828;2023-11-19T17:53:12;98762.59;;;10.78;100.00
78590;BME280;67888;50.228;7.828;2023-11-19T17:58:12;98761.50;;;10.84;100.00
78590;BME280;67888;50.228;7.828;2023-11-19T18:03:13;98763.09;;;10.85;100.00
78590;BME280;67888;50.228;7.828;2023-11-19T18:08:14;98756.78;;;10.81;100.00
78590;BME280;67888;50.228;7.828;2023-11-19T18:13:17;98772.94;;;10.74;100.00
78590;BME280;67888;50.228;7.828;2023-11-19T18:18:18;98757.81;;;10.85;100.00
78590;BME280;67888;50.228;7.828;2023-11-19T18:23:18;98763.41;;;10.78;100.00
78590;BME280;67888;50.228;7.828;2023-11-19T18:28:19;98745.56;;;10.99;100.00
78590;BME280;67888;50.228;7.828;2023-11-19T18:33:23;98742.47;;;11.16;100.00
78590;BME280;67888;50.228;7.828;2023-11-19T18:38:23;98737.44;;;11.20;100.00
78590;BME280;67888;50.228;7.828;2023-11-19T18:43:24;98726.56;;;11.02;100.00
78590;BME280;67888;50.228;7.828;2023-11-19T18:48:26;98733.50;;;10.93;100.00
78590;BME280;67888;50.228;7.828;2023-11-19T18:53:26;98735.47;;;11.06;100.00
78590;BME280;67888;50.228;7.828;2023-11-19T18:58:27;98741.34;;;11.22;100.00
78590;BME280;67888;50.228;7.828;2023-11-19T19:03:27;98754.75;;;11.26;100.00
78590;BME280;67888;50.228;7.828;2023-11-19T19:08:31;98757.16;;;11.22;100.00
78590;BME280;67888;50.228;7.828;2023-11-19T19:13:35;98745.38;;;11.14;100.00
78590;BME280;67888;50.228;7.828;2023-11-19T19:18:37;98751.88;;;11.22;100.00
78590;BME280;67888;50.228;7.828;2023-11-19T19:23:38;98746.00;;;11.30;100.00
78590;BME280;67888;50.228;7.828;2023-11-19T19:28:39;98736.69;;;11.38;100.00
78590;BME280;67888;50.228;7.828;2023-11-19T19:33:39;98727.41;;;11.40;100.00
78590;BME280;67888;50.228;7.828;2023-11-19T19:38:40;98735.72;;;11.29;100.00
78590;BME280;67888;50.228;7.828;2023-11-19T19:43:41;98730.47;;;11.29;100.00
78590;BME280;67888;50.228;7.828;2023-11-19T19:48:41;98733.59;;;11.31;100.00
78590;BME280;67888;50.228;7.828;2023-11-19T19:53:42;98735.13;;;11.37;100.00
78590;BME280;67888;50.228;7.828;2023-11-19T19:58:44;98737.75;;;11.37;100.00
78590;BME280;67888;50.228;7.828;2023-11-19T20:03:45;98734.84;;;11.38;100.00
78590;BME280;67888;50.228;7.828;2023-11-19T20:08:45;98754.13;;;11.34;100.00
78590;BME280;67888;50.228;7.828;2023-11-19T20:13:48;98745.16;;;11.35;100.00
78590;BME280;67888;50.228;7.828;2023-11-19T20:18:48;98745.56;;;11.42;100.00
78590;BME280;67888;50.228;7.828;2023-11-19T20:23:49;98754.22;;;11.47;100.00
78590;BME280;67888;50.228;7.828;2023-11-19T20:28:49;98736.84;;;11.46;100.00
78590;BME280;67888;50.228;7.828;2023-11-19T20:33:50;98753.84;;;11.54;100.00
78590;BME280;67888;50.228;7.828;2023-11-19T20:38:50;98742.34;;;11.50;100.00
78590;BME280;67888;50.228;7.828;2023-11-19T20:43:51;98739.13;;;11.53;100.00
78590;BME280;67888;50.228;7.828;2023-11-19T20:48:52;98765.31;;;11.44;100.00
78590;BME280;67888;50.228;7.828;2023-11-19T20:53:53;98774.84;;;11.40;100.00
78590;BME280;67888;50.228;7.828;2023-11-19T20:58:54;98757.09;;;11.51;100.00
78590;BME280;67888;50.228;7.828;2023-11-19T21:03:55;98749.22;;;11.46;100.00
78590;BME280;67888;50.228;7.828;2023-11-19T21:08:56;98754.88;;;11.58;100.00
78590;BME280;67888;50.228;7.828;2023-11-19T21:14:25;98751.75;;;11.32;100.00
78590;BME280;67888;50.228;7.828;2023-11-19T21:19:26;98764.69;;;11.29;100.00
78590;BME280;67888;50.228;7.828;2023-11-19T21:24:30;98741.69;;;11.39;100.00
78590;BME280;67888;50.228;7.828;2023-11-19T21:29:31;98764.38;;;11.35;100.00
78590;BME280;67888;50.228;7.828;2023-11-19T21:34:31;98759.81;;;11.41;100.00
78590;BME280;67888;50.228;7.828;2023-11-19T21:39:33;98735.63;;;11.39;100.00
78590;BME280;67888;50.228;7.828;2023-11-19T21:44:34;98746.38;;;11.42;100.00
78590;BME280;67888;50.228;7.828;2023-11-19T21:49:35;98739.75;;;11.45;100.00
78590;BME280;67888;50.228;7.828;2023-11-19T21:54:38;98743.16;;;11.27;100.00
78590;BME280;67888;50.228;7.828;2023-11-19T21:59:38;98754.78;;;11.44;100.00
78590;BME280;67888;50.228;7.828;2023-11-19T22:04:41;98739.81;;;11.40;100.00
78590;BME280;67888;50.228;7.828;2023-11-19T22:09:42;98735.63;;;11.39;100.00
78590;BME280;67888;50.228;7.828;2023-11-19T22:14:42;98743.22;;;11.40;100.00
78590;BME280;67888;50.228;7.828;2023-11-19T22:19:55;98755.59;;;11.40;100.00
78590;BME280;67888;50.228;7.828;2023-11-19T22:24:56;98738.97;;;11.44;100.00
78590;BME280;67888;50.228;7.828;2023-11-19T22:29:58;98737.16;;;11.40;100.00
78590;BME280;67888;50.228;7.828;2023-11-19T22:34:58;98742.44;;;11.40;100.00
78590;BME280;67888;50.228;7.828;2023-11-19T22:40:24;98741.47;;;11.36;100.00
78590;BME280;67888;50.228;7.828;2023-11-19T22:45:25;98742.78;;;11.33;100.00
78590;BME280;67888;50.228;7.828;2023-11-19T22:50:26;98736.50;;;11.29;100.00
78590;BME280;67888;50.228;7.828;2023-11-19T22:55:27;98736.59;;;11.24;100.00
78590;BME280;67888;50.228;7.828;2023-11-19T23:00:28;98749.25;;;11.22;100.00
78590;BME280;67888;50.228;7.828;2023-11-19T23:05:29;98738.06;;;11.11;100.00
78590;BME280;67888;50.228;7.828;2023-11-19T23:10:32;98743.91;;;11.03;100.00
78590;BME280;67888;50.228;7.828;2023-11-19T23:15:33;98761.28;;;11.04;100.00
78590;BME280;67888;50.228;7.828;2023-11-19T23:20:34;98757.38;;;11.02;100.00
78590;BME280;67888;50.228;7.828;2023-11-19T23:25:34;98756.94;;;10.95;100.00
78590;BME280;67888;50.228;7.828;2023-11-19T23:30:35;98759.84;;;10.93;100.00
78590;BME280;67888;50.228;7.828;2023-11-19T23:35:36;98765.06;;;10.98;100.00
78590;BME280;67888;50.228;7.828;2023-11-19T23:40:36;98763.00;;;10.90;100.00
78590;BME280;67888;50.228;7.828;2023-11-19T23:45:37;98755.69;;;10.87;100.00
78590;BME280;67888;50.228;7.828;2023-11-19T23:50:37;98758.88;;;10.84;100.00
78590;BME280;67888;50.228;7.828;2023-11-19T23:55:38;98760.44;;;10.85;100.00
